Time;durP1;ratioP1;P1;durP2;ratioP2;P2;SDS_P1;SDS_P2;PMS_P1;PMS_P2;Temp;Humidity;BMP_temperature;BMP_pressure;BME280_temperature;BME280_humidity;BME280_pressure;Samples;Min_cycle;Max_cycle;Signal;HPM_P1;HPM_P2
2023/04/04 00:00:21;;;;;;;;;7.25;7.25;;;;;10.94;43.25;101942.47;2098723;28;45782;-60
2023/04/04 00:01:21;;;;;;;;;4.75;3.25;;;;;10.91;43.11;101938.03;2102498;27;44992;-62
2023/04/04 00:02:22;;;;;;;;;5.50;5.50;;;;;10.90;43.23;101949.53;2107030;27;45063;-61
2023/04/04 00:03:22;;;;;;;;;8.75;7.75;;;;;10.89;42.95;101941.59;2103748;28;44880;-62
2023/04/04 00:04:23;;;;;;;;;5.50;5.50;;;;;10.88;43.03;101939.81;2103139;28;44859;-62
2023/04/04 00:05:23;;;;;;;;;5.25;5.25;;;;;10.85;42.71;101948.69;2103871;27;44941;-62
2023/04/04 00:06:23;;;;;;;;;5.00;5.00;;;;;10.86;42.91;101946.91;2097807;28;44937;-62
2023/04/04 00:07:24;;;;;;;;;6.75;6.75;;;;;10.85;42.74;101945.16;2097032;28;44836;-61
2023/04/04 00:08:24;;;;;;;;;7.25;6.25;;;;;10.84;42.57;101952.22;2097716;28;45056;-63
2023/04/04 00:09:24;;;;;;;;;5.25;5.25;;;;;10.84;42.97;101946.94;2100381;28;44932;-61
2023/04/04 00:10:25;;;;;;;;;5.00;4.50;;;;;10.83;42.93;101944.28;2101464;28;45009;-62
2023/04/04 00:11:25;;;;;;;;;7.25;7.25;;;;;10.83;42.80;101945.16;2104028;28;44853;-61
2023/04/04 00:12:26;;;;;;;;;5.75;5.75;;;;;10.83;42.73;101958.44;2103196;28;45150;-62
2023/04/04 00:13:27;;;;;;;;;7.00;7.00;;;;;10.83;42.82;101941.63;2104137;28;44958;-62
2023/04/04 00:14:28;;;;;;;;;5.20;5.20;;;;;10.83;42.77;101945.16;2097831;28;45483;-61
2023/04/04 00:15:28;;;;;;;;;4.00;4.00;;;;;10.83;42.63;101942.50;2097012;28;44955;-60
2023/04/04 00:16:29;;;;;;;;;5.50;5.50;;;;;10.83;42.72;101949.59;2097986;28;45031;-62
2023/04/04 00:17:29;;;;;;;;;6.00;5.00;;;;;10.82;42.61;101950.47;2100243;28;44798;-61
2023/04/04 00:18:30;;;;;;;;;4.50;3.75;;;;;10.81;42.67;101946.94;2094873;28;45207;-61
2023/04/04 00:19:30;;;;;;;;;5.50;5.50;;;;;10.80;42.60;101952.25;2095612;28;44899;-60
2023/04/04 00:20:30;;;;;;;;;7.00;6.50;;;;;10.80;42.58;101952.25;2100283;28;45295;-63
2023/04/04 00:21:31;;;;;;;;;4.00;4.00;;;;;10.78;42.46;101949.59;2096251;28;44927;-61
2023/04/04 00:22:31;;;;;;;;;5.00;5.00;;;;;10.78;42.40;101946.03;2102500;28;45034;-62
2023/04/04 00:23:32;;;;;;;;;6.00;5.00;;;;;10.77;42.44;101946.94;2105169;28;44923;-63
2023/04/04 00:24:32;;;;;;;;;5.75;5.75;;;;;10.76;42.63;101948.72;2101074;28;45934;-61
2023/04/04 00:25:33;;;;;;;;;6.00;5.00;;;;;10.75;42.56;101948.72;2103016;28;44863;-62
2023/04/04 00:26:33;;;;;;;;;5.75;5.75;;;;;10.76;42.72;101955.78;2086554;28;45498;-62
2023/04/04 00:27:33;;;;;;;;;4.25;4.00;;;;;10.76;42.55;101947.81;2079044;28;44987;-61
2023/04/04 00:28:33;;;;;;;;;4.00;4.00;;;;;10.75;42.60;101944.28;2094299;28;45109;-61
2023/04/04 00:29:34;;;;;;;;;5.25;5.25;;;;;10.75;42.51;101944.28;2104941;28;45124;-61
2023/04/04 00:30:34;;;;;;;;;4.50;4.00;;;;;10.75;42.57;101944.28;2104408;28;45051;-62
2023/04/04 00:31:35;;;;;;;;;5.00;5.00;;;;;10.74;42.47;101945.19;2104498;28;44782;-61
2023/04/04 00:32:35;;;;;;;;;5.25;5.25;;;;;10.76;42.61;101942.50;2103654;28;44867;-62
2023/04/04 00:33:36;;;;;;;;;4.00;4.00;;;;;10.75;42.30;101951.38;2100287;28;44834;-61
2023/04/04 00:34:36;;;;;;;;;5.00;5.00;;;;;10.76;42.64;101948.72;2101932;28;45091;-61
2023/04/04 00:35:36;;;;;;;;;4.75;4.75;;;;;10.76;42.52;101951.38;2105038;28;44895;-62
2023/04/04 00:36:37;;;;;;;;;5.75;5.75;;;;;10.78;42.42;101954.00;2098958;28;45541;-62
2023/04/04 00:37:37;;;;;;;;;6.00;6.00;;;;;10.77;42.27;101945.16;2096184;28;44919;-61
2023/04/04 00:38:38;;;;;;;;;6.67;5.67;;;;;10.76;42.57;101943.41;2095833;28;45377;-61
2023/04/04 00:39:38;;;;;;;;;6.00;6.00;;;;;10.74;42.44;101947.84;2096258;28;44897;-63
2023/04/04 00:40:41;;;;;;;;;3.50;3.50;;;;;10.75;42.58;101949.59;2103807;28;45036;-62
2023/04/04 00:41:42;;;;;;;;;6.40;5.00;;;;;10.74;42.49;101945.19;2104246;28;44959;-63
2023/04/04 00:42:42;;;;;;;;;6.00;6.00;;;;;10.74;42.38;101944.28;2094034;28;45118;-61
2023/04/04 00:43:43;;;;;;;;;7.00;6.50;;;;;10.73;42.45;101942.53;2095089;28;44849;-62
2023/04/04 00:44:44;;;;;;;;;4.75;4.75;;;;;10.73;42.48;101951.38;2102070;28;44997;-62
2023/04/04 00:45:45;;;;;;;;;5.75;5.75;;;;;10.72;42.41;101952.28;2095967;28;44929;-61
2023/04/04 00:46:45;;;;;;;;;5.00;5.00;;;;;10.71;42.61;101942.53;2099733;28;45063;-62
2023/04/04 00:47:47;;;;;;;;;6.25;6.25;;;;;10.72;42.51;101944.31;2103449;28;45134;-60
2023/04/04 00:48:48;;;;;;;;;6.80;5.00;;;;;10.72;42.57;101944.31;2104981;27;44994;-62
2023/04/04 00:49:48;;;;;;;;;4.40;4.40;;;;;10.73;42.45;101950.50;2109776;27;45019;-61
2023/04/04 00:50:49;;;;;;;;;6.75;6.75;;;;;10.73;42.49;101956.69;2096715;28;44918;-61
2023/04/04 00:51:49;;;;;;;;;8.25;7.50;;;;;10.73;42.65;101951.38;2100520;28;45030;-62
2023/04/04 00:52:50;;;;;;;;;7.75;7.50;;;;;10.75;42.68;101948.72;2104115;27;45214;-62
2023/04/04 00:53:51;;;;;;;;;5.33;5.33;;;;;10.74;42.66;101946.94;2095172;28;44987;-61
2023/04/04 00:54:54;;;;;;;;;6.80;6.20;;;;;10.72;42.85;101948.72;2094339;28;45004;-62
2023/04/04 00:55:55;;;;;;;;;7.00;4.60;;;;;10.69;42.94;101944.31;2096207;28;44818;-60
2023/04/04 00:56:55;;;;;;;;;6.00;6.00;;;;;10.67;42.95;101942.53;2100062;28;45221;-63
2023/04/04 00:57:57;;;;;;;;;5.00;5.00;;;;;10.65;43.07;101947.84;2099469;28;45085;-61
2023/04/04 00:58:59;;;;;;;;;5.80;5.80;;;;;10.64;42.79;101948.75;2104867;28;44967;-61
2023/04/04 01:00:05;;;;;;;;;5.00;5.00;;;;;10.64;42.74;101953.16;2103909;28;44852;-62
2023/04/04 01:01:05;;;;;;;;;5.60;5.60;;;;;10.63;42.82;101946.09;2098721;28;44819;-61
2023/04/04 01:02:07;;;;;;;;;4.25;4.25;;;;;10.60;42.68;101941.69;2096331;28;44943;-62
2023/04/04 01:03:11;;;;;;;;;7.00;6.00;;;;;10.60;42.98;101937.25;2101894;28;44943;-62
2023/04/04 01:04:12;;;;;;;;;6.80;6.20;;;;;10.60;42.86;101947.88;2100674;28;44893;-61
2023/04/04 01:05:12;;;;;;;;;7.00;7.00;;;;;10.60;42.88;101941.69;2104806;28;44849;-61
2023/04/04 01:06:14;;;;;;;;;6.00;6.00;;;;;10.60;42.97;101931.06;2104383;28;45757;-61
2023/04/04 01:07:14;;;;;;;;;7.60;6.60;;;;;10.58;43.03;101933.72;2081333;28;45367;-61
2023/04/04 01:08:23;;;;;;;;;7.50;6.25;;;;;10.56;43.18;101932.84;2085836;28;45032;-62
2023/04/04 01:09:24;;;;;;;;;4.40;4.40;;;;;10.57;43.20;101933.72;2104789;28;44802;-62
2023/04/04 01:10:24;;;;;;;;;6.75;6.75;;;;;10.56;42.94;101937.28;2095389;28;44965;-62
2023/04/04 01:11:26;;;;;;;;;6.75;6.50;;;;;10.53;43.15;101938.13;2095516;28;44910;-61
2023/04/04 01:12:27;;;;;;;;;6.80;6.80;;;;;10.54;43.07;101939.03;2103859;28;44784;-61
2023/04/04 01:13:27;;;;;;;;;6.00;6.00;;;;;10.53;43.24;101931.94;2104969;28;44919;-63
2023/04/04 01:14:28;;;;;;;;;6.75;5.25;;;;;10.53;43.32;101937.25;2098580;28;45173;-60
2023/04/04 01:15:28;;;;;;;;;8.75;8.75;;;;;10.51;43.35;101926.66;2096335;28;44927;-64
2023/04/04 01:16:29;;;;;;;;;7.25;7.25;;;;;10.51;43.48;101931.94;2095580;28;45136;-62
2023/04/04 01:17:29;;;;;;;;;6.25;6.25;;;;;10.52;43.30;101930.19;2086093;28;44956;-61
2023/04/04 01:18:33;;;;;;;;;11.75;10.75;;;;;10.51;43.52;101928.41;2085844;28;45007;-62
2023/04/04 01:19:46;;;;;;;;;11.40;10.00;;;;;10.50;43.67;101932.84;2104314;28;44963;-62
2023/04/04 01:21:04;;;;;;;;;10.20;10.20;;;;;10.50;43.50;101924.88;2100437;28;44871;-60
2023/04/04 01:22:05;;;;;;;;;8.40;7.20;;;;;10.50;43.62;101929.31;2102135;28;45023;-61
2023/04/04 01:23:06;;;;;;;;;8.60;8.00;;;;;10.49;43.69;101932.84;2095991;28;44937;-61
2023/04/04 01:24:08;;;;;;;;;9.20;9.20;;;;;10.48;43.61;101931.97;2083113;28;44977;-61
2023/04/04 01:25:10;;;;;;;;;9.00;7.80;;;;;10.48;43.60;101933.75;2080879;28;45012;-60
2023/04/04 01:26:10;;;;;;;;;9.40;8.20;;;;;10.47;43.82;101931.97;2103868;28;44847;-62
2023/04/04 01:27:12;;;;;;;;;7.25;7.25;;;;;10.44;43.91;101934.63;2102228;27;45016;-62
2023/04/04 01:28:12;;;;;;;;;9.40;8.80;;;;;10.45;44.05;101934.63;2105849;27;44968;-60
2023/04/04 01:29:12;;;;;;;;;9.25;7.50;;;;;10.45;43.70;101936.41;2098450;28;45017;-60
2023/04/04 01:30:14;;;;;;;;;11.00;9.00;;;;;10.45;44.05;101937.28;2103871;28;44968;-62
2023/04/04 01:31:38;;;;;;;;;8.00;8.00;;;;;10.45;43.93;101939.06;2103688;28;44837;-61
2023/04/04 01:32:51;;;;;;;;;8.60;8.60;;;;;10.44;43.82;101939.94;2103697;28;44946;-63
2023/04/04 01:34:02;;;;;;;;;8.60;8.60;;;;;10.44;43.89;101937.28;2099741;28;44866;-62
2023/04/04 01:35:24;;;;;;;;;8.80;8.20;;;;;10.44;43.98;101943.50;2096610;28;44827;-61
2023/04/04 01:36:33;;;;;;;;;6.20;6.00;;;;;10.43;43.97;101938.19;2096038;28;44871;-61
2023/04/04 01:37:39;;;;;;;;;12.60;7.00;;;;;10.41;43.72;101946.13;2101395;28;44893;-63
2023/04/04 01:38:57;;;;;;;;;7.80;7.60;;;;;10.40;43.67;101947.00;2100431;28;44927;-60
2023/04/04 01:40:15;;;;;;;;;7.60;7.60;;;;;10.40;43.91;101935.50;2102396;28;45257;-62
2023/04/04 01:41:18;;;;;;;;;6.20;5.60;;;;;10.38;43.69;101937.28;2095961;28;45030;-62
2023/04/04 01:42:19;;;;;;;;;8.80;7.60;;;;;10.37;43.76;101944.38;2103077;28;44908;-61
2023/04/04 01:43:19;;;;;;;;;8.00;8.00;;;;;10.37;43.76;101938.19;2104260;28;44798;-60
2023/04/04 01:44:20;;;;;;;;;6.00;6.00;;;;;10.36;43.98;101947.03;2102789;28;45244;-60
2023/04/04 01:45:21;;;;;;;;;7.00;7.00;;;;;10.36;44.00;101949.69;2095160;28;45179;-62
2023/04/04 01:46:22;;;;;;;;;5.60;5.60;;;;;10.35;43.82;101950.56;2096444;28;46630;-61
2023/04/04 01:47:23;;;;;;;;;9.25;7.75;;;;;10.35;43.69;101942.59;2100715;28;44988;-60
2023/04/04 01:48:26;;;;;;;;;6.80;6.80;;;;;10.35;43.64;101950.56;2102022;27;45051;-61
2023/04/04 01:49:26;;;;;;;;;6.80;6.80;;;;;10.35;43.69;101948.78;2098023;28;45018;-62
2023/04/04 01:50:27;;;;;;;;;6.75;6.75;;;;;10.34;43.91;101946.16;2103104;28;44955;-60
2023/04/04 01:51:29;;;;;;;;;6.75;6.75;;;;;10.34;43.60;101951.47;2092801;28;45050;-60
2023/04/04 01:52:30;;;;;;;;;9.00;7.80;;;;;10.32;43.75;101943.50;2097611;27;44837;-62
2023/04/04 01:53:30;;;;;;;;;8.00;8.00;;;;;10.31;43.83;101945.28;2104742;27;44906;-61
2023/04/04 01:54:32;;;;;;;;;10.00;8.25;;;;;10.33;43.67;101953.22;2102005;28;44903;-60
2023/04/04 01:55:32;;;;;;;;;7.40;7.00;;;;;10.31;43.89;101953.22;2085908;28;44997;-62
2023/04/04 01:56:33;;;;;;;;;8.25;8.25;;;;;10.31;43.83;101955.88;2090257;28;44843;-62
2023/04/04 01:57:33;;;;;;;;;11.25;11.25;;;;;10.29;43.65;101955.00;2100033;28;44816;-62
2023/04/04 01:58:33;;;;;;;;;9.25;7.00;;;;;10.29;44.05;101956.75;2096147;28;44818;-61
2023/04/04 01:59:35;;;;;;;;;7.75;7.75;;;;;10.28;43.86;101953.22;2100152;28;45770;-62
2023/04/04 02:00:35;;;;;;;;;9.00;9.00;;;;;10.28;43.96;101955.88;2099226;28;44983;-62
2023/04/04 02:01:36;;;;;;;;;10.25;10.25;;;;;10.28;43.89;101952.31;2094290;28;45269;-63
2023/04/04 02:02:36;;;;;;;;;7.25;7.25;;;;;10.27;43.95;101950.56;2095372;28;44924;-60
2023/04/04 02:03:36;;;;;;;;;9.50;9.50;;;;;10.25;43.91;101949.69;2104503;28;45113;-62
2023/04/04 02:04:37;;;;;;;;;9.75;9.75;;;;;10.24;44.03;101951.44;2104719;28;44858;-62
2023/04/04 02:05:37;;;;;;;;;7.00;7.00;;;;;10.24;43.77;101948.81;2105304;28;44930;-61
2023/04/04 02:06:39;;;;;;;;;8.00;8.00;;;;;10.24;43.87;101947.91;2104279;28;44915;-61
2023/04/04 02:07:39;;;;;;;;;10.40;8.40;;;;;10.22;43.91;101953.22;2104230;28;44967;-61
2023/04/04 02:08:40;;;;;;;;;10.00;10.00;;;;;10.21;44.03;101945.25;2096497;28;44901;-62
2023/04/04 02:09:40;;;;;;;;;8.75;7.25;;;;;10.21;43.84;101948.81;2090847;28;44870;-61
2023/04/04 02:10:40;;;;;;;;;8.00;8.00;;;;;10.19;43.98;101950.56;2097634;28;44898;-62
2023/04/04 02:11:41;;;;;;;;;9.00;9.00;;;;;10.19;44.15;101939.06;2103899;28;45100;-63
2023/04/04 02:12:41;;;;;;;;;9.00;9.00;;;;;10.18;43.95;101945.25;2102050;28;44909;-62
2023/04/04 02:13:43;;;;;;;;;7.00;7.00;;;;;10.16;44.06;101945.22;2096303;28;45269;-60
2023/04/04 02:14:44;;;;;;;;;9.00;8.00;;;;;10.15;44.16;101938.16;2103261;28;45082;-61
2023/04/04 02:15:44;;;;;;;;;6.25;6.25;;;;;10.14;44.51;101941.69;2104502;28;44955;-61
2023/04/04 02:16:45;;;;;;;;;8.50;8.50;;;;;10.14;44.17;101938.16;2103882;28;44926;-67
2023/04/04 02:17:47;;;;;;;;;9.75;9.25;;;;;10.14;44.15;101933.72;2092394;28;46028;-61
2023/04/04 02:18:47;;;;;;;;;7.80;7.80;;;;;10.12;44.06;101934.63;2094543;28;45017;-63
2023/04/04 02:19:48;;;;;;;;;7.00;7.00;;;;;10.10;44.17;101929.31;2103831;28;44996;-62
2023/04/04 02:20:55;;;;;;;;;8.00;8.00;;;;;10.10;44.19;101929.31;2099696;28;44862;-62
2023/04/04 02:21:56;;;;;;;;;7.60;7.60;;;;;10.08;44.03;101930.22;2102274;27;44938;-61
2023/04/04 02:22:56;;;;;;;;;6.25;6.25;;;;;10.06;44.29;101930.22;2104560;28;44967;-62
2023/04/04 02:23:57;;;;;;;;;7.75;7.75;;;;;10.07;44.35;101931.09;2098833;28;45060;-62
2023/04/04 02:24:59;;;;;;;;;7.50;7.50;;;;;10.06;44.13;101927.56;2097463;28;45121;-61
2023/04/04 02:25:59;;;;;;;;;9.00;9.00;;;;;10.06;44.39;101930.22;2103457;27;45059;-63
2023/04/04 02:27:00;;;;;;;;;5.00;5.00;;;;;10.07;44.33;101928.44;2098690;28;44900;-61
2023/04/04 02:28:00;;;;;;;;;5.75;5.75;;;;;10.06;44.27;101932.88;2097696;27;45261;-62
2023/04/04 02:29:01;;;;;;;;;7.00;7.00;;;;;10.06;44.04;101929.34;2105749;28;44956;-61
2023/04/04 02:30:02;;;;;;;;;8.00;8.00;;;;;10.04;44.15;101934.66;2105453;28;45121;-60
2023/04/04 02:31:02;;;;;;;;;8.25;7.25;;;;;10.03;44.20;101930.19;2105958;28;45118;-60
2023/04/04 02:32:02;;;;;;;;;7.00;7.00;;;;;10.02;44.12;101936.38;2104275;28;45160;-62
2023/04/04 02:33:03;;;;;;;;;7.00;7.00;;;;;10.02;44.25;101934.63;2105085;28;45005;-61
2023/04/04 02:34:03;;;;;;;;;10.00;7.00;;;;;10.02;44.21;101933.72;2101163;28;44912;-61
2023/04/04 02:35:04;;;;;;;;;6.25;6.25;;;;;10.02;44.26;101931.97;2100469;28;45066;-61
2023/04/04 02:36:05;;;;;;;;;7.40;6.60;;;;;10.00;44.10;101928.44;2105768;28;44875;-61
2023/04/04 02:37:05;;;;;;;;;8.75;8.75;;;;;9.99;44.33;101937.28;2094602;28;44951;-61
2023/04/04 02:38:05;;;;;;;;;8.75;8.00;;;;;10.00;44.09;101932.84;2088248;28;44929;-61
2023/04/04 02:39:06;;;;;;;;;8.75;6.50;;;;;9.99;44.41;101928.44;2097289;28;44829;-62
2023/04/04 02:40:07;;;;;;;;;9.00;9.00;;;;;9.98;44.23;101927.56;2104882;28;45797;-61
2023/04/04 02:41:07;;;;;;;;;9.00;9.00;;;;;9.98;44.51;101927.56;2098083;28;44788;-63
2023/04/04 02:42:07;;;;;;;;;11.00;9.00;;;;;9.97;44.21;101923.13;2105585;28;44925;-61
2023/04/04 02:43:08;;;;;;;;;7.00;7.00;;;;;9.98;44.44;101930.22;2105778;27;44890;-61
2023/04/04 02:44:09;;;;;;;;;10.25;8.50;;;;;9.97;44.52;101928.44;2105073;28;45275;-61
2023/04/04 02:45:10;;;;;;;;;8.25;8.25;;;;;9.97;44.38;101927.56;2105771;28;44865;-62
2023/04/04 02:46:11;;;;;;;;;6.60;6.40;;;;;9.96;44.43;101921.38;2103377;28;44987;-60
2023/04/04 02:47:11;;;;;;;;;8.00;8.00;;;;;9.96;44.31;101921.38;2102779;28;44932;-61
2023/04/04 02:48:12;;;;;;;;;6.25;6.25;;;;;9.95;44.50;101924.03;2105172;28;44914;-62
2023/04/04 02:49:13;;;;;;;;;8.00;7.00;;;;;9.93;44.42;101916.06;2110773;27;44899;-61
2023/04/04 02:50:13;;;;;;;;;8.00;7.60;;;;;9.93;44.60;101918.72;2105551;28;44857;-62
2023/04/04 02:51:13;;;;;;;;;7.00;7.00;;;;;9.91;44.43;101915.19;2104755;28;44867;-62
2023/04/04 02:52:14;;;;;;;;;5.75;5.75;;;;;9.91;44.54;101915.19;2105103;27;44916;-63
2023/04/04 02:53:14;;;;;;;;;7.50;6.00;;;;;9.92;44.65;101921.38;2110661;27;44939;-62
2023/04/04 02:54:14;;;;;;;;;7.25;7.00;;;;;9.91;44.31;101912.53;2096413;28;45732;-61
2023/04/04 02:55:15;;;;;;;;;7.00;5.00;;;;;9.91;44.49;101914.28;2096380;28;44903;-61
2023/04/04 02:56:15;;;;;;;;;6.25;6.25;;;;;9.91;44.38;101916.94;2098660;28;44849;-61
2023/04/04 02:57:15;;;;;;;;;8.00;8.00;;;;;9.90;44.77;101923.13;2105025;28;44937;-60
2023/04/04 02:58:16;;;;;;;;;9.25;9.25;;;;;9.89;44.51;101924.00;2095875;28;45059;-61
2023/04/04 02:59:17;;;;;;;;;8.00;7.75;;;;;9.89;44.58;101924.91;2096046;28;44814;-61
2023/04/04 03:00:17;;;;;;;;;7.00;7.00;;;;;9.88;44.67;101923.13;2104922;28;44854;-61
2023/04/04 03:01:18;;;;;;;;;7.00;7.00;;;;;9.88;44.67;101924.91;2103353;28;45067;-62
2023/04/04 03:02:18;;;;;;;;;9.25;9.25;;;;;9.87;44.59;101915.19;2102409;28;45032;-62
2023/04/04 03:03:18;;;;;;;;;6.25;6.25;;;;;9.87;44.70;101921.38;2102112;28;45055;-61
2023/04/04 03:04:19;;;;;;;;;7.75;7.75;;;;;9.86;44.90;101919.59;2098884;28;44946;-61
2023/04/04 03:05:19;;;;;;;;;8.75;8.25;;;;;9.85;44.74;101924.91;2104397;28;44926;-61
2023/04/04 03:06:20;;;;;;;;;8.00;6.50;;;;;9.84;44.47;101933.75;2101741;28;45110;-61
2023/04/04 03:07:21;;;;;;;;;7.25;7.25;;;;;9.81;44.60;101921.38;2104812;28;44928;-60
2023/04/04 03:08:22;;;;;;;;;8.00;8.00;;;;;9.80;44.67;101921.38;2105628;28;44909;-59
2023/04/04 03:09:22;;;;;;;;;6.75;6.75;;;;;9.80;44.92;101916.06;2104674;28;45095;-60
2023/04/04 03:10:24;;;;;;;;;7.25;7.25;;;;;9.77;44.81;101919.59;2104906;28;44890;-62
2023/04/04 03:11:25;;;;;;;;;6.40;6.40;;;;;9.77;44.73;101921.34;2104186;28;44977;-62
2023/04/04 03:12:26;;;;;;;;;9.00;9.00;;;;;9.76;44.88;101916.94;2105444;28;45272;-60
2023/04/04 03:13:26;;;;;;;;;6.60;6.00;;;;;9.73;44.80;101920.47;2105254;28;44866;-61
2023/04/04 03:14:28;;;;;;;;;7.50;6.75;;;;;9.72;44.82;101914.28;2100775;28;45086;-62
2023/04/04 03:15:29;;;;;;;;;9.00;7.00;;;;;9.72;44.76;101918.72;2097071;28;44984;-60
2023/04/04 03:16:29;;;;;;;;;7.00;7.00;;;;;9.71;44.75;101914.28;2099773;27;44882;-60
2023/04/04 03:17:30;;;;;;;;;9.25;8.25;;;;;9.69;44.78;101911.66;2105476;28;44945;-61
2023/04/04 03:18:32;;;;;;;;;5.50;5.50;;;;;9.69;44.92;101916.06;2105393;28;44877;-63
2023/04/04 03:19:32;;;;;;;;;9.00;7.00;;;;;9.68;44.91;101917.81;2099849;28;44951;-62
2023/04/04 03:20:33;;;;;;;;;7.25;7.25;;;;;9.67;45.01;101917.84;2096890;28;44902;-62
2023/04/04 03:21:33;;;;;;;;;9.50;8.00;;;;;9.65;44.99;101908.97;2096948;28;44893;-62
2023/04/04 03:22:33;;;;;;;;;8.75;8.25;;;;;9.64;44.94;101916.03;2100692;28;45079;-62
2023/04/04 03:23:34;;;;;;;;;8.25;8.25;;;;;9.62;44.96;101914.28;2105336;28;45461;-63
2023/04/04 03:24:35;;;;;;;;;8.00;7.25;;;;;9.61;45.00;101918.69;2087568;28;44897;-62
2023/04/04 03:25:35;;;;;;;;;10.00;8.00;;;;;9.61;44.74;101915.16;2087466;28;44778;-61
2023/04/04 03:26:36;;;;;;;;;7.75;6.75;;;;;9.60;44.94;101919.56;2096490;28;44832;-62
2023/04/04 03:27:38;;;;;;;;;7.50;6.50;;;;;9.59;45.01;101920.47;2101681;28;44898;-61
2023/04/04 03:28:38;;;;;;;;;6.40;6.20;;;;;9.59;45.03;101917.81;2103303;27;45024;-62
2023/04/04 03:29:39;;;;;;;;;9.00;9.00;;;;;9.58;44.97;101918.69;2105224;27;45024;-60
2023/04/04 03:30:39;;;;;;;;;8.25;7.50;;;;;9.57;44.96;101926.66;2097786;28;45340;-60
2023/04/04 03:31:40;;;;;;;;;10.75;8.00;;;;;9.56;45.14;101919.56;2100616;28;44900;-60
2023/04/04 03:32:40;;;;;;;;;8.00;8.00;;;;;9.55;45.06;101924.00;2105357;28;44935;-61
2023/04/04 03:33:41;;;;;;;;;7.00;7.00;;;;;9.55;44.96;101920.47;2108535;27;44952;-60
2023/04/04 03:34:42;;;;;;;;;6.00;6.00;;;;;9.53;44.63;101925.75;2090081;28;44880;-61
2023/04/04 03:35:42;;;;;;;;;9.00;7.75;;;;;9.52;45.00;101923.97;2079262;28;44870;-61
2023/04/04 03:36:43;;;;;;;;;7.25;7.25;;;;;9.52;45.06;101925.72;2102660;28;44792;-62
2023/04/04 03:37:43;;;;;;;;;9.25;9.25;;;;;9.50;44.89;101925.72;2105046;28;44819;-61
2023/04/04 03:38:43;;;;;;;;;8.50;7.00;;;;;9.49;45.27;101921.31;2104894;28;45044;-60
2023/04/04 03:39:44;;;;;;;;;7.25;7.25;;;;;9.48;44.82;101918.66;2104498;28;45082;-62
2023/04/04 03:40:44;;;;;;;;;8.25;7.75;;;;;9.47;44.65;101919.56;2095054;28;44998;-63
2023/04/04 03:41:45;;;;;;;;;11.50;11.00;;;;;9.44;45.09;101923.09;2094238;28;44861;-60
2023/04/04 03:42:45;;;;;;;;;5.00;5.00;;;;;9.43;44.89;101918.66;2105231;28;44952;-62
2023/04/04 03:43:47;;;;;;;;;7.50;7.25;;;;;9.41;44.74;101920.44;2099332;28;44863;-62
2023/04/04 03:44:47;;;;;;;;;9.40;9.40;;;;;9.40;44.96;101924.84;2102999;28;44925;-62
2023/04/04 03:45:48;;;;;;;;;11.00;9.00;;;;;9.38;44.91;101923.06;2095237;28;45912;-62
2023/04/04 03:46:48;;;;;;;;;5.75;5.75;;;;;9.36;44.94;101917.75;2087835;28;45376;-61
2023/04/04 03:47:48;;;;;;;;;8.50;8.50;;;;;9.35;45.08;101920.41;2095288;28;44955;-60
2023/04/04 03:48:49;;;;;;;;;8.25;7.50;;;;;9.34;45.01;101919.53;2108714;27;44884;-61
2023/04/04 03:49:51;;;;;;;;;6.00;6.00;;;;;9.34;44.84;101921.28;2106731;27;45110;-62
2023/04/04 03:50:51;;;;;;;;;8.60;8.60;;;;;9.32;44.86;101920.41;2105196;28;44850;-61
2023/04/04 03:51:51;;;;;;;;;7.00;7.00;;;;;9.31;45.15;101918.63;2104149;28;45315;-61
2023/04/04 03:52:52;;;;;;;;;6.00;6.00;;;;;9.30;44.93;101916.88;2104351;27;44925;-61
2023/04/04 03:53:52;;;;;;;;;9.75;9.75;;;;;9.28;45.02;101923.94;2104719;28;44890;-61
2023/04/04 03:54:52;;;;;;;;;7.25;7.25;;;;;9.26;45.03;101931.84;2104558;28;45014;-61
2023/04/04 03:55:55;;;;;;;;;12.50;11.50;;;;;9.26;45.13;101928.31;2105272;28;44912;-61
2023/04/04 03:56:56;;;;;;;;;7.00;7.00;;;;;9.24;45.01;101928.31;2099753;28;44784;-61
2023/04/04 03:57:57;;;;;;;;;9.20;6.40;;;;;9.21;45.13;101925.66;2095871;28;44853;-61
2023/04/04 03:58:58;;;;;;;;;7.60;7.00;;;;;9.19;45.14;101935.38;2100008;28;44901;-61
2023/04/04 03:59:58;;;;;;;;;7.00;7.00;;;;;9.18;45.17;101930.06;2104270;28;44946;-61
2023/04/04 04:00:59;;;;;;;;;10.25;10.25;;;;;9.17;45.24;101930.97;2105039;28;45134;-62
2023/04/04 04:01:59;;;;;;;;;13.25;10.50;;;;;9.15;45.29;101933.59;2104221;28;45089;-61
2023/04/04 04:02:59;;;;;;;;;7.50;7.50;;;;;9.14;45.13;101929.16;2096987;28;44790;-60
2023/04/04 04:04:00;;;;;;;;;7.00;7.00;;;;;9.13;45.23;101935.34;2099325;28;44773;-61
2023/04/04 04:05:00;;;;;;;;;7.00;7.00;;;;;9.12;45.28;101933.56;2105197;28;44932;-60
2023/04/04 04:06:01;;;;;;;;;11.50;10.75;;;;;9.10;45.35;101938.88;2104615;27;44935;-62
2023/04/04 04:07:01;;;;;;;;;19.75;19.50;;;;;9.10;45.30;101941.50;2105219;28;45122;-62
2023/04/04 04:08:01;;;;;;;;;15.00;13.50;;;;;9.08;45.28;101943.28;2104038;28;44875;-61
2023/04/04 04:09:02;;;;;;;;;10.00;10.00;;;;;9.08;45.37;101942.38;2102284;28;44898;-61
2023/04/04 04:10:04;;;;;;;;;6.50;6.25;;;;;9.06;45.21;101941.50;2096955;28;45339;-62
2023/04/04 04:11:07;;;;;;;;;7.00;7.00;;;;;9.06;45.24;101941.50;2092835;28;44837;-63
2023/04/04 04:12:07;;;;;;;;;8.80;7.20;;;;;9.04;45.55;101946.78;2096018;28;44968;-63
2023/04/04 04:13:08;;;;;;;;;9.75;9.50;;;;;9.04;45.42;101945.91;2102803;28;44915;-62
2023/04/04 04:14:08;;;;;;;;;10.00;7.00;;;;;9.01;45.46;101949.41;2096589;28;44885;-60
2023/04/04 04:15:08;;;;;;;;;6.50;5.50;;;;;9.01;45.41;101946.75;2098331;28;44886;-62
2023/04/04 04:16:09;;;;;;;;;6.75;6.00;;;;;9.02;45.61;101953.84;2104087;28;44830;-62
2023/04/04 04:17:09;;;;;;;;;5.75;5.75;;;;;9.00;45.61;101952.06;2105138;28;44885;-61
2023/04/04 04:18:10;;;;;;;;;8.50;8.50;;;;;9.01;45.46;101949.41;2103812;28;44947;-61
2023/04/04 04:19:10;;;;;;;;;8.00;6.75;;;;;9.01;45.71;101953.81;2105054;28;44891;-60
2023/04/04 04:20:11;;;;;;;;;10.25;9.25;;;;;9.00;45.38;101954.69;2104941;28;45365;-61
2023/04/04 04:21:11;;;;;;;;;5.75;5.75;;;;;9.00;45.62;101960.00;2097607;28;45065;-61
2023/04/04 04:22:11;;;;;;;;;8.75;8.75;;;;;8.97;45.50;101963.53;2097650;28;45089;-61
2023/04/04 04:23:12;;;;;;;;;7.25;6.00;;;;;8.96;45.62;101963.50;2104935;28;45122;-60
2023/04/04 04:24:12;;;;;;;;;9.25;7.00;;;;;8.93;45.49;101956.44;2092588;28;45089;-62
2023/04/04 04:25:13;;;;;;;;;6.25;6.25;;;;;8.92;45.54;101964.38;2095884;28;44913;-61
2023/04/04 04:26:14;;;;;;;;;7.00;7.00;;;;;8.90;45.39;101967.03;2096983;28;44916;-61
2023/04/04 04:27:14;;;;;;;;;6.25;6.25;;;;;8.88;45.35;101967.88;2096870;28;44838;-61
2023/04/04 04:28:15;;;;;;;;;7.00;5.75;;;;;8.84;45.53;101966.97;2091009;28;44924;-62
2023/04/04 04:29:15;;;;;;;;;7.00;6.00;;;;;8.82;45.73;101969.63;2096109;28;44928;-61
2023/04/04 04:30:16;;;;;;;;;10.00;7.75;;;;;8.80;45.39;101968.75;2103923;28;44989;-61
2023/04/04 04:31:16;;;;;;;;;7.25;5.75;;;;;8.80;45.42;101975.78;2104919;28;45142;-61
2023/04/04 04:32:17;;;;;;;;;5.25;5.25;;;;;8.78;45.50;101974.91;2100484;28;44927;-61
2023/04/04 04:33:18;;;;;;;;;6.20;5.60;;;;;8.77;45.45;101974.03;2096524;28;44987;-62
2023/04/04 04:34:18;;;;;;;;;9.00;9.00;;;;;8.77;45.49;101983.72;2098556;28;44952;-61
2023/04/04 04:35:19;;;;;;;;;7.00;7.00;;;;;8.77;45.50;101981.97;2102575;28;44997;-61
2023/04/04 04:36:19;;;;;;;;;12.25;7.50;;;;;8.76;45.49;101968.69;2104581;28;44853;-61
2023/04/04 04:37:20;;;;;;;;;6.25;6.25;;;;;8.75;45.60;101977.50;2103954;28;44819;-63
2023/04/04 04:38:20;;;;;;;;;7.00;6.75;;;;;8.75;45.56;101980.16;2103269;28;44841;-61
2023/04/04 04:39:21;;;;;;;;;7.50;7.50;;;;;8.75;45.50;101972.22;2104798;28;44821;-60
2023/04/04 04:40:21;;;;;;;;;8.25;6.25;;;;;8.74;45.39;101978.38;2103856;28;45640;-62
2023/04/04 04:41:21;;;;;;;;;8.75;7.25;;;;;8.72;45.56;101980.16;2098131;27;44965;-63
2023/04/04 04:42:22;;;;;;;;;9.50;7.25;;;;;8.72;45.62;101975.72;2104419;28;45004;-62
2023/04/04 04:43:22;;;;;;;;;9.50;7.75;;;;;8.74;45.57;101983.69;2095892;28;45042;-63
2023/04/04 04:44:23;;;;;;;;;9.75;7.00;;;;;8.74;45.46;101978.38;2088165;28;45931;-61
2023/04/04 04:45:24;;;;;;;;;8.25;8.25;;;;;8.73;45.27;101981.91;2096897;28;44951;-62